sensor_id;sensor_type;location;lat;lon;timestamp;P1;durP1;ratioP1;P2;durP2;ratioP2
23474;SDS011;11910;52.086;21.066;2023-07-13T00:00:28;11.50;;;10.30;;
23474;SDS011;11910;52.086;21.066;2023-07-13T00:02:55;13.05;;;10.18;;
23474;SDS011;11910;52.086;21.066;2023-07-13T00:05:21;10.90;;;9.80;;
23474;SDS011;11910;52.086;21.066;2023-07-13T00:07:48;11.60;;;10.50;;
23474;SDS011;11910;52.086;21.066;2023-07-13T00:10:14;11.38;;;10.27;;
23474;SDS011;11910;52.086;21.066;2023-07-13T00:12:40;16.95;;;13.32;;
23474;SDS011;11910;52.086;21.066;2023-07-13T00:15:09;11.65;;;9.65;;
23474;SDS011;11910;52.086;21.066;2023-07-13T00:17:37;11.57;;;9.65;;
23474;SDS011;11910;52.086;21.066;2023-07-13T00:20:05;13.02;;;9.73;;
23474;SDS011;11910;52.086;21.066;2023-07-13T00:22:32;15.15;;;9.60;;
23474;SDS011;11910;52.086;21.066;2023-07-13T00:24:57;11.88;;;10.60;;
23474;SDS011;11910;52.086;21.066;2023-07-13T00:27:24;12.88;;;11.57;;
23474;SDS011;11910;52.086;21.066;2023-07-13T00:29:51;10.60;;;9.60;;
23474;SDS011;11910;52.086;21.066;2023-07-13T00:32:17;11.18;;;10.07;;
23474;SDS011;11910;52.086;21.066;2023-07-13T00:34:43;10.15;;;8.80;;
23474;SDS011;11910;52.086;21.066;2023-07-13T00:37:09;13.40;;;11.15;;
23474;SDS011;11910;52.086;21.066;2023-07-13T00:39:36;13.48;;;11.13;;
23474;SDS011;11910;52.086;21.066;2023-07-13T00:42:03;10.82;;;9.73;;
23474;SDS011;11910;52.086;21.066;2023-07-13T00:44:29;15.60;;;11.10;;
23474;SDS011;11910;52.086;21.066;2023-07-13T00:46:55;9.63;;;8.73;;
23474;SDS011;11910;52.086;21.066;2023-07-13T00:49:23;10.52;;;8.85;;
23474;SDS011;11910;52.086;21.066;2023-07-13T00:51:52;10.52;;;9.27;;
23474;SDS011;11910;52.086;21.066;2023-07-13T00:54:23;10.10;;;8.95;;
23474;SDS011;11910;52.086;21.066;2023-07-13T00:56:52;11.13;;;9.10;;
23474;SDS011;11910;52.086;21.066;2023-07-13T00:59:20;9.90;;;8.93;;
23474;SDS011;11910;52.086;21.066;2023-07-13T01:01:47;10.73;;;9.10;;
23474;SDS011;11910;52.086;21.066;2023-07-13T01:04:13;9.80;;;8.73;;
23474;SDS011;11910;52.086;21.066;2023-07-13T01:06:39;11.40;;;9.50;;
23474;SDS011;11910;52.086;21.066;2023-07-13T01:09:07;10.98;;;9.60;;
23474;SDS011;11910;52.086;21.066;2023-07-13T01:11:33;10.40;;;9.20;;
23474;SDS011;11910;52.086;21.066;2023-07-13T01:14:00;11.02;;;9.90;;
23474;SDS011;11910;52.086;21.066;2023-07-13T01:16:30;10.45;;;9.35;;
23474;SDS011;11910;52.086;21.066;2023-07-13T01:18:59;14.65;;;10.38;;
23474;SDS011;11910;52.086;21.066;2023-07-13T01:21:27;13.63;;;11.75;;
23474;SDS011;11910;52.086;21.066;2023-07-13T01:23:55;12.80;;;9.93;;
23474;SDS011;11910;52.086;21.066;2023-07-13T01:26:21;10.07;;;9.18;;
23474;SDS011;11910;52.086;21.066;2023-07-13T01:28:47;10.73;;;8.73;;
23474;SDS011;11910;52.086;21.066;2023-07-13T01:31:12;10.43;;;9.40;;
23474;SDS011;11910;52.086;21.066;2023-07-13T01:33:39;12.05;;;9.80;;
23474;SDS011;11910;52.086;21.066;2023-07-13T01:36:06;10.57;;;9.48;;
23474;SDS011;11910;52.086;21.066;2023-07-13T01:38:32;13.30;;;10.77;;
23474;SDS011;11910;52.086;21.066;2023-07-13T01:40:59;11.82;;;9.38;;
23474;SDS011;11910;52.086;21.066;2023-07-13T01:43:25;10.30;;;8.82;;
23474;SDS011;11910;52.086;21.066;2023-07-13T01:45:51;9.68;;;8.60;;
23474;SDS011;11910;52.086;21.066;2023-07-13T01:48:16;12.13;;;8.10;;
23474;SDS011;11910;52.086;21.066;2023-07-13T01:50:42;8.75;;;7.85;;
23474;SDS011;11910;52.086;21.066;2023-07-13T01:53:08;10.63;;;9.15;;
23474;SDS011;11910;52.086;21.066;2023-07-13T01:55:34;11.63;;;8.93;;
23474;SDS011;11910;52.086;21.066;2023-07-13T01:58:00;8.98;;;8.07;;
23474;SDS011;11910;52.086;21.066;2023-07-13T02:00:26;13.00;;;11.57;;
23474;SDS011;11910;52.086;21.066;2023-07-13T02:02:51;11.88;;;10.75;;
23474;SDS011;11910;52.086;21.066;2023-07-13T02:05:17;12.98;;;9.68;;
23474;SDS011;11910;52.086;21.066;2023-07-13T02:07:43;11.77;;;9.13;;
23474;SDS011;11910;52.086;21.066;2023-07-13T02:10:09;10.07;;;9.07;;
23474;SDS011;11910;52.086;21.066;2023-07-13T02:12:36;11.45;;;9.25;;
23474;SDS011;11910;52.086;21.066;2023-07-13T02:15:02;9.48;;;7.80;;
23474;SDS011;11910;52.086;21.066;2023-07-13T02:17:28;9.98;;;8.52;;
23474;SDS011;11910;52.086;21.066;2023-07-13T02:19:54;11.65;;;8.77;;
23474;SDS011;11910;52.086;21.066;2023-07-13T02:22:20;9.80;;;8.77;;
23474;SDS011;11910;52.086;21.066;2023-07-13T02:24:46;9.23;;;8.30;;
23474;SDS011;11910;52.086;21.066;2023-07-13T02:27:12;9.50;;;8.27;;
23474;SDS011;11910;52.086;21.066;2023-07-13T02:29:38;10.57;;;9.20;;
23474;SDS011;11910;52.086;21.066;2023-07-13T02:32:03;9.40;;;8.35;;
23474;SDS011;11910;52.086;21.066;2023-07-13T02:34:29;10.13;;;9.13;;
23474;SDS011;11910;52.086;21.066;2023-07-13T02:36:55;10.50;;;8.68;;
23474;SDS011;11910;52.086;21.066;2023-07-13T02:39:21;13.23;;;9.15;;
23474;SDS011;11910;52.086;21.066;2023-07-13T02:41:46;10.35;;;8.38;;
23474;SDS011;11910;52.086;21.066;2023-07-13T02:44:12;10.60;;;9.15;;
23474;SDS011;11910;52.086;21.066;2023-07-13T02:46:38;9.82;;;8.77;;
23474;SDS011;11910;52.086;21.066;2023-07-13T02:49:04;9.07;;;7.68;;
23474;SDS011;11910;52.086;21.066;2023-07-13T02:51:31;9.07;;;8.13;;
23474;SDS011;11910;52.086;21.066;2023-07-13T02:53:59;9.52;;;8.52;;
23474;SDS011;11910;52.086;21.066;2023-07-13T02:56:28;11.02;;;8.65;;
23474;SDS011;11910;52.086;21.066;2023-07-13T02:58:56;10.05;;;8.10;;
23474;SDS011;11910;52.086;21.066;2023-07-13T03:01:22;9.57;;;8.30;;
23474;SDS011;11910;52.086;21.066;2023-07-13T03:03:49;10.15;;;8.55;;
23474;SDS011;11910;52.086;21.066;2023-07-13T03:06:15;10.48;;;8.98;;
23474;SDS011;11910;52.086;21.066;2023-07-13T03:08:41;9.60;;;8.63;;
23474;SDS011;11910;52.086;21.066;2023-07-13T03:11:09;10.93;;;8.73;;
23474;SDS011;11910;52.086;21.066;2023-07-13T03:13:37;10.35;;;9.10;;
23474;SDS011;11910;52.086;21.066;2023-07-13T03:16:03;10.10;;;8.35;;
23474;SDS011;11910;52.086;21.066;2023-07-13T03:18:30;11.00;;;8.30;;
23474;SDS011;11910;52.086;21.066;2023-07-13T03:20:56;10.50;;;8.40;;
23474;SDS011;11910;52.086;21.066;2023-07-13T03:23:22;10.48;;;8.95;;
23474;SDS011;11910;52.086;21.066;2023-07-13T03:25:48;11.80;;;9.77;;
23474;SDS011;11910;52.086;21.066;2023-07-13T03:28:14;10.65;;;9.52;;
23474;SDS011;11910;52.086;21.066;2023-07-13T03:30:40;13.15;;;9.82;;
23474;SDS011;11910;52.086;21.066;2023-07-13T03:33:06;10.23;;;9.10;;
23474;SDS011;11910;52.086;21.066;2023-07-13T03:35:33;11.27;;;9.30;;
23474;SDS011;11910;52.086;21.066;2023-07-13T03:37:59;8.57;;;7.78;;
23474;SDS011;11910;52.086;21.066;2023-07-13T03:40:25;9.50;;;8.60;;
23474;SDS011;11910;52.086;21.066;2023-07-13T03:42:52;9.00;;;8.15;;
23474;SDS011;11910;52.086;21.066;2023-07-13T03:45:18;8.98;;;8.07;;
23474;SDS011;11910;52.086;21.066;2023-07-13T03:47:44;9.48;;;8.48;;
23474;SDS011;11910;52.086;21.066;2023-07-13T03:50:10;9.80;;;8.80;;
23474;SDS011;11910;52.086;21.066;2023-07-13T03:52:36;11.10;;;9.27;;
23474;SDS011;11910;52.086;21.066;2023-07-13T03:55:02;12.48;;;11.18;;
23474;SDS011;11910;52.086;21.066;2023-07-13T03:57:28;15.82;;;12.90;;
23474;SDS011;11910;52.086;21.066;2023-07-13T03:59:54;15.98;;;12.63;;
23474;SDS011;11910;52.086;21.066;2023-07-13T04:02:20;11.65;;;10.30;;
23474;SDS011;11910;52.086;21.066;2023-07-13T04:04:46;16.70;;;13.10;;
23474;SDS011;11910;52.086;21.066;2023-07-13T04:07:11;13.73;;;12.38;;
23474;SDS011;11910;52.086;21.066;2023-07-13T04:09:37;14.93;;;13.43;;
23474;SDS011;11910;52.086;21.066;2023-07-13T04:12:03;14.43;;;12.90;;
23474;SDS011;11910;52.086;21.066;2023-07-13T04:14:29;16.33;;;14.43;;
23474;SDS011;11910;52.086;21.066;2023-07-13T04:16:55;15.15;;;12.93;;
23474;SDS011;11910;52.086;21.066;2023-07-13T04:19:21;17.58;;;15.48;;
23474;SDS011;11910;52.086;21.066;2023-07-13T04:21:47;17.25;;;14.65;;
23474;SDS011;11910;52.086;21.066;2023-07-13T04:24:13;19.17;;;15.40;;
23474;SDS011;11910;52.086;21.066;2023-07-13T04:26:38;16.75;;;15.05;;
23474;SDS011;11910;52.086;21.066;2023-07-13T04:29:05;17.27;;;15.57;;
23474;SDS011;11910;52.086;21.066;2023-07-13T04:31:31;17.83;;;15.00;;
23474;SDS011;11910;52.086;21.066;2023-07-13T04:33:57;17.60;;;14.70;;
23474;SDS011;11910;52.086;21.066;2023-07-13T04:36:24;17.95;;;13.70;;
23474;SDS011;11910;52.086;21.066;2023-07-13T04:38:52;17.17;;;15.10;;
23474;SDS011;11910;52.086;21.066;2023-07-13T04:41:19;17.70;;;13.90;;
23474;SDS011;11910;52.086;21.066;2023-07-13T04:43:46;17.05;;;14.48;;
23474;SDS011;11910;52.086;21.066;2023-07-13T04:46:12;14.80;;;13.30;;
23474;SDS011;11910;52.086;21.066;2023-07-13T04:48:39;16.05;;;14.00;;
23474;SDS011;11910;52.086;21.066;2023-07-13T04:51:05;17.98;;;14.93;;
23474;SDS011;11910;52.086;21.066;2023-07-13T04:53:32;17.10;;;14.52;;
23474;SDS011;11910;52.086;21.066;2023-07-13T04:55:59;16.48;;;14.88;;
23474;SDS011;11910;52.086;21.066;2023-07-13T04:58:25;16.73;;;15.00;;
23474;SDS011;11910;52.086;21.066;2023-07-13T05:00:51;16.15;;;14.50;;
23474;SDS011;11910;52.086;21.066;2023-07-13T05:03:16;17.10;;;14.52;;
23474;SDS011;11910;52.086;21.066;2023-07-13T05:05:42;16.45;;;14.75;;
23474;SDS011;11910;52.086;21.066;2023-07-13T05:08:08;17.75;;;14.45;;
23474;SDS011;11910;52.086;21.066;2023-07-13T05:10:34;15.98;;;14.27;;
23474;SDS011;11910;52.086;21.066;2023-07-13T05:13:00;17.35;;;14.60;;
23474;SDS011;11910;52.086;21.066;2023-07-13T05:15:26;17.77;;;14.82;;
23474;SDS011;11910;52.086;21.066;2023-07-13T05:17:52;16.30;;;14.27;;
23474;SDS011;11910;52.086;21.066;2023-07-13T05:20:18;18.42;;;15.27;;
23474;SDS011;11910;52.086;21.066;2023-07-13T05:22:44;16.35;;;14.13;;
23474;SDS011;11910;52.086;21.066;2023-07-13T05:25:11;16.77;;;15.10;;
23474;SDS011;11910;52.086;21.066;2023-07-13T05:27:37;15.90;;;14.23;;
23474;SDS011;11910;52.086;21.066;2023-07-13T05:30:03;16.42;;;14.75;;
23474;SDS011;11910;52.086;21.066;2023-07-13T05:32:29;16.63;;;14.93;;
23474;SDS011;11910;52.086;21.066;2023-07-13T05:34:55;19.27;;;15.50;;
23474;SDS011;11910;52.086;21.066;2023-07-13T05:37:21;17.38;;;15.57;;
23474;SDS011;11910;52.086;21.066;2023-07-13T05:39:46;16.65;;;15.02;;
23474;SDS011;11910;52.086;21.066;2023-07-13T05:42:12;18.60;;;15.02;;
23474;SDS011;11910;52.086;21.066;2023-07-13T05:44:38;17.25;;;15.27;;
23474;SDS011;11910;52.086;21.066;2023-07-13T05:47:07;19.98;;;15.75;;
23474;SDS011;11910;52.086;21.066;2023-07-13T05:49:32;18.73;;;15.25;;
23474;SDS011;11910;52.086;21.066;2023-07-13T05:51:58;17.60;;;15.25;;
23474;SDS011;11910;52.086;21.066;2023-07-13T05:54:23;17.15;;;15.35;;
23474;SDS011;11910;52.086;21.066;2023-07-13T05:56:49;16.50;;;14.32;;
23474;SDS011;11910;52.086;21.066;2023-07-13T05:59:15;17.48;;;15.68;;
23474;SDS011;11910;52.086;21.066;2023-07-13T06:01:41;19.00;;;16.15;;
23474;SDS011;11910;52.086;21.066;2023-07-13T06:04:06;18.25;;;15.27;;
23474;SDS011;11910;52.086;21.066;2023-07-13T06:06:32;20.42;;;16.42;;
23474;SDS011;11910;52.086;21.066;2023-07-13T06:08:58;17.25;;;15.35;;
23474;SDS011;11910;52.086;21.066;2023-07-13T06:11:25;18.73;;;16.92;;
23474;SDS011;11910;52.086;21.066;2023-07-13T06:13:52;17.65;;;15.77;;
23474;SDS011;11910;52.086;21.066;2023-07-13T06:16:19;18.38;;;16.45;;
23474;SDS011;11910;52.086;21.066;2023-07-13T06:18:45;19.40;;;16.52;;
23474;SDS011;11910;52.086;21.066;2023-07-13T06:21:12;19.70;;;15.95;;
23474;SDS011;11910;52.086;21.066;2023-07-13T06:23:40;19.23;;;15.50;;
23474;SDS011;11910;52.086;21.066;2023-07-13T06:26:06;19.17;;;14.95;;
23474;SDS011;11910;52.086;21.066;2023-07-13T06:28:33;18.88;;;16.90;;
23474;SDS011;11910;52.086;21.066;2023-07-13T06:30:59;17.70;;;15.82;;
23474;SDS011;11910;52.086;21.066;2023-07-13T06:33:25;17.70;;;15.80;;
23474;SDS011;11910;52.086;21.066;2023-07-13T06:35:52;16.85;;;15.05;;
23474;SDS011;11910;52.086;21.066;2023-07-13T06:38:19;16.80;;;13.68;;
23474;SDS011;11910;52.086;21.066;2023-07-13T06:40:45;15.27;;;13.68;;
23474;SDS011;11910;52.086;21.066;2023-07-13T06:43:11;15.77;;;14.13;;
23474;SDS011;11910;52.086;21.066;2023-07-13T06:45:44;15.93;;;14.32;;
23474;SDS011;11910;52.086;21.066;2023-07-13T06:48:12;18.35;;;15.18;;
23474;SDS011;11910;52.086;21.066;2023-07-13T06:50:38;17.05;;;15.32;;
23474;SDS011;11910;52.086;21.066;2023-07-13T06:53:04;21.02;;;15.05;;
23474;SDS011;11910;52.086;21.066;2023-07-13T06:55:29;18.50;;;15.05;;
23474;SDS011;11910;52.086;21.066;2023-07-13T06:57:55;17.38;;;14.07;;
23474;SDS011;11910;52.086;21.066;2023-07-13T07:00:21;16.55;;;14.07;;
23474;SDS011;11910;52.086;21.066;2023-07-13T07:02:47;16.52;;;13.50;;
23474;SDS011;11910;52.086;21.066;2023-07-13T07:05:12;19.70;;;14.07;;
23474;SDS011;11910;52.086;21.066;2023-07-13T07:07:38;16.58;;;14.80;;
23474;SDS011;11910;52.086;21.066;2023-07-13T07:10:04;16.80;;;14.50;;
23474;SDS011;11910;52.086;21.066;2023-07-13T07:12:30;18.02;;;13.88;;
23474;SDS011;11910;52.086;21.066;2023-07-13T07:14:56;14.10;;;12.70;;
23474;SDS011;11910;52.086;21.066;2023-07-13T07:17:21;16.23;;;12.20;;
23474;SDS011;11910;52.086;21.066;2023-07-13T07:19:51;10.00;;;8.88;;
23474;SDS011;11910;52.086;21.066;2023-07-13T07:22:18;9.02;;;7.28;;
23474;SDS011;11910;52.086;21.066;2023-07-13T07:24:45;8.15;;;6.97;;
23474;SDS011;11910;52.086;21.066;2023-07-13T07:27:11;9.00;;;7.93;;
23474;SDS011;11910;52.086;21.066;2023-07-13T07:29:36;8.65;;;6.97;;
23474;SDS011;11910;52.086;21.066;2023-07-13T07:32:02;9.20;;;7.38;;
23474;SDS011;11910;52.086;21.066;2023-07-13T07:34:29;7.40;;;6.70;;
23474;SDS011;11910;52.086;21.066;2023-07-13T07:36:58;8.32;;;7.18;;
23474;SDS011;11910;52.086;21.066;2023-07-13T07:39:25;9.60;;;6.28;;
23474;SDS011;11910;52.086;21.066;2023-07-13T07:41:51;10.15;;;5.88;;
23474;SDS011;11910;52.086;21.066;2023-07-13T07:44:17;9.02;;;6.68;;
23474;SDS011;11910;52.086;21.066;2023-07-13T07:46:42;9.07;;;6.57;;
23474;SDS011;11910;52.086;21.066;2023-07-13T07:49:08;7.43;;;6.40;;
23474;SDS011;11910;52.086;21.066;2023-07-13T07:51:34;8.02;;;5.72;;
23474;SDS011;11910;52.086;21.066;2023-07-13T07:53:59;10.98;;;5.80;;
23474;SDS011;11910;52.086;21.066;2023-07-13T07:56:25;6.40;;;5.65;;
23474;SDS011;11910;52.086;21.066;2023-07-13T07:58:51;8.10;;;5.13;;
23474;SDS011;11910;52.086;21.066;2023-07-13T08:01:17;5.80;;;5.20;;
23474;SDS011;11910;52.086;21.066;2023-07-13T08:03:42;9.15;;;5.63;;
23474;SDS011;11910;52.086;21.066;2023-07-13T08:06:11;6.90;;;5.72;;
23474;SDS011;11910;52.086;21.066;2023-07-13T08:08:36;8.63;;;6.10;;
23474;SDS011;11910;52.086;21.066;2023-07-13T08:11:05;8.13;;;6.45;;
23474;SDS011;11910;52.086;21.066;2023-07-13T08:13:32;11.18;;;6.70;;
23474;SDS011;11910;52.086;21.066;2023-07-13T08:15:58;9.40;;;7.50;;
23474;SDS011;11910;52.086;21.066;2023-07-13T08:18:24;8.27;;;7.47;;
23474;SDS011;11910;52.086;21.066;2023-07-13T08:20:50;9.73;;;7.38;;
23474;SDS011;11910;52.086;21.066;2023-07-13T08:23:15;9.02;;;8.13;;
23474;SDS011;11910;52.086;21.066;2023-07-13T08:25:42;11.68;;;8.32;;
23474;SDS011;11910;52.086;21.066;2023-07-13T08:28:07;8.82;;;7.95;;
23474;SDS011;11910;52.086;21.066;2023-07-13T08:30:33;11.07;;;8.70;;
23474;SDS011;11910;52.086;21.066;2023-07-13T08:32:59;11.68;;;7.82;;
23474;SDS011;11910;52.086;21.066;2023-07-13T08:35:24;11.13;;;8.75;;
23474;SDS011;11910;52.086;21.066;2023-07-13T08:37:51;12.00;;;9.43;;
23474;SDS011;11910;52.086;21.066;2023-07-13T08:40:16;9.32;;;8.40;;
23474;SDS011;11910;52.086;21.066;2023-07-13T08:42:54;10.82;;;8.55;;
23474;SDS011;11910;52.086;21.066;2023-07-13T08:47:55;9.73;;;8.10;;
23474;SDS011;11910;52.086;21.066;2023-07-13T08:50:28;9.00;;;8.02;;
23474;SDS011;11910;52.086;21.066;2023-07-13T08:53:08;8.25;;;7.55;;
23474;SDS011;11910;52.086;21.066;2023-07-13T08:55:38;8.38;;;7.57;;
23474;SDS011;11910;52.086;21.066;2023-07-13T08:58:13;9.63;;;8.43;;
23474;SDS011;11910;52.086;21.066;2023-07-13T09:01:23;9.85;;;8.27;;
23474;SDS011;11910;52.086;21.066;2023-07-13T09:03:41;8.95;;;7.85;;
23474;SDS011;11910;52.086;21.066;2023-07-13T09:06:13;8.45;;;7.65;;
23474;SDS011;11910;52.086;21.066;2023-07-13T09:08:46;9.05;;;8.05;;
23474;SDS011;11910;52.086;21.066;2023-07-13T09:16:44;9.93;;;8.07;;
23474;SDS011;11910;52.086;21.066;2023-07-13T09:19:14;9.15;;;7.32;;
23474;SDS011;11910;52.086;21.066;2023-07-13T09:21:49;9.40;;;8.48;;
23474;SDS011;11910;52.086;21.066;2023-07-13T09:26:58;8.47;;;7.67;;
23474;SDS011;11910;52.086;21.066;2023-07-13T09:29:34;9.93;;;8.05;;
23474;SDS011;11910;52.086;21.066;2023-07-13T09:32:01;8.07;;;7.28;;
23474;SDS011;11910;52.086;21.066;2023-07-13T09:36:57;8.65;;;7.85;;
23474;SDS011;11910;52.086;21.066;2023-07-13T09:39:27;8.82;;;7.95;;
23474;SDS011;11910;52.086;21.066;2023-07-13T09:42:14;8.50;;;7.70;;
23474;SDS011;11910;52.086;21.066;2023-07-13T09:44:51;9.30;;;8.05;;
23474;SDS011;11910;52.086;21.066;2023-07-13T09:47:28;9.48;;;7.57;;
23474;SDS011;11910;52.086;21.066;2023-07-13T09:50:00;11.40;;;7.85;;
23474;SDS011;11910;52.086;21.066;2023-07-13T09:52:26;11.70;;;7.93;;
23474;SDS011;11910;52.086;21.066;2023-07-13T09:55:12;9.57;;;7.97;;
23474;SDS011;11910;52.086;21.066;2023-07-13T09:57:53;9.52;;;7.82;;
23474;SDS011;11910;52.086;21.066;2023-07-13T10:00:29;9.38;;;8.00;;
23474;SDS011;11910;52.086;21.066;2023-07-13T10:03:16;8.85;;;7.25;;
23474;SDS011;11910;52.086;21.066;2023-07-13T10:05:48;8.73;;;7.85;;
23474;SDS011;11910;52.086;21.066;2023-07-13T10:08:25;8.32;;;7.57;;
23474;SDS011;11910;52.086;21.066;2023-07-13T10:10:58;8.63;;;7.78;;
23474;SDS011;11910;52.086;21.066;2023-07-13T10:13:31;9.55;;;7.57;;
23474;SDS011;11910;52.086;21.066;2023-07-13T10:16:00;9.80;;;7.75;;
23474;SDS011;11910;52.086;21.066;2023-07-13T10:18:26;8.63;;;7.78;;
23474;SDS011;11910;52.086;21.066;2023-07-13T10:20:58;8.50;;;7.70;;
23474;SDS011;11910;52.086;21.066;2023-07-13T10:23:35;8.98;;;7.30;;
23474;SDS011;11910;52.086;21.066;2023-07-13T10:26:01;10.88;;;8.13;;
23474;SDS011;11910;52.086;21.066;2023-07-13T10:28:33;9.27;;;7.10;;
23474;SDS011;11910;52.086;21.066;2023-07-13T10:31:02;9.20;;;7.30;;
23474;SDS011;11910;52.086;21.066;2023-07-13T10:33:35;9.18;;;5.05;;
23474;SDS011;11910;52.086;21.066;2023-07-13T10:36:12;9.93;;;5.00;;
23474;SDS011;11910;52.086;21.066;2023-07-13T10:41:10;7.07;;;4.80;;
23474;SDS011;11910;52.086;21.066;2023-07-13T10:43:43;7.18;;;5.07;;
23474;SDS011;11910;52.086;21.066;2023-07-13T10:46:15;5.60;;;4.97;;
23474;SDS011;11910;52.086;21.066;2023-07-13T10:48:44;9.00;;;4.60;;
23474;SDS011;11910;52.086;21.066;2023-07-13T10:51:15;8.07;;;4.35;;
23474;SDS011;11910;52.086;21.066;2023-07-13T10:53:43;7.47;;;4.65;;
23474;SDS011;11910;52.086;21.066;2023-07-13T10:56:28;10.77;;;4.90;;
23474;SDS011;11910;52.086;21.066;2023-07-13T10:59:01;6.40;;;4.55;;
23474;SDS011;11910;52.086;21.066;2023-07-13T11:01:40;9.32;;;4.68;;
23474;SDS011;11910;52.086;21.066;2023-07-13T11:04:20;9.73;;;4.32;;
23474;SDS011;11910;52.086;21.066;2023-07-13T11:06:49;19.60;;;7.13;;
23474;SDS011;11910;52.086;21.066;2023-07-13T11:12:09;12.63;;;6.50;;
23474;SDS011;11910;52.086;21.066;2023-07-13T11:17:24;21.20;;;9.50;;
23474;SDS011;11910;52.086;21.066;2023-07-13T11:20:18;14.70;;;9.35;;
23474;SDS011;11910;52.086;21.066;2023-07-13T11:25:31;21.30;;;9.93;;
23474;SDS011;11910;52.086;21.066;2023-07-13T12:52:34;15.85;;;12.88;;
23474;SDS011;11910;52.086;21.066;2023-07-13T12:57:45;16.08;;;13.95;;
23474;SDS011;11910;52.086;21.066;2023-07-13T13:00:32;16.00;;;13.55;;
23474;SDS011;11910;52.086;21.066;2023-07-13T13:03:02;17.92;;;13.65;;
23474;SDS011;11910;52.086;21.066;2023-07-13T13:07:24;17.25;;;14.35;;
23474;SDS011;11910;52.086;21.066;2023-07-13T13:09:50;18.48;;;15.00;;
23474;SDS011;11910;52.086;21.066;2023-07-13T13:12:17;15.80;;;13.57;;
23474;SDS011;11910;52.086;21.066;2023-07-13T13:14:43;15.07;;;13.05;;
23474;SDS011;11910;52.086;21.066;2023-07-13T13:17:18;17.00;;;13.75;;
23474;SDS011;11910;52.086;21.066;2023-07-13T13:19:46;15.85;;;14.10;;
23474;SDS011;11910;52.086;21.066;2023-07-13T13:22:12;16.73;;;13.77;;
23474;SDS011;11910;52.086;21.066;2023-07-13T13:24:38;16.80;;;13.77;;
23474;SDS011;11910;52.086;21.066;2023-07-13T13:27:04;17.38;;;14.70;;
23474;SDS011;11910;52.086;21.066;2023-07-13T13:29:31;17.63;;;15.65;;
23474;SDS011;11910;52.086;21.066;2023-07-13T13:31:57;17.95;;;16.05;;
23474;SDS011;11910;52.086;21.066;2023-07-13T13:34:23;20.95;;;16.63;;
23474;SDS011;11910;52.086;21.066;2023-07-13T13:36:49;18.83;;;16.85;;
23474;SDS011;11910;52.086;21.066;2023-07-13T13:39:24;16.63;;;14.70;;
23474;SDS011;11910;52.086;21.066;2023-07-13T13:42:00;17.42;;;15.68;;
23474;SDS011;11910;52.086;21.066;2023-07-13T13:44:25;14.68;;;13.30;;
23474;SDS011;11910;52.086;21.066;2023-07-13T13:46:52;16.55;;;14.85;;
23474;SDS011;11910;52.086;21.066;2023-07-13T13:49:22;16.48;;;14.27;;
23474;SDS011;11910;52.086;21.066;2023-07-13T13:51:50;15.02;;;13.52;;
23474;SDS011;11910;52.086;21.066;2023-07-13T13:54:16;14.68;;;13.20;;
23474;SDS011;11910;52.086;21.066;2023-07-13T13:56:43;14.15;;;12.70;;
23474;SDS011;11910;52.086;21.066;2023-07-13T13:59:10;14.65;;;12.10;;
23474;SDS011;11910;52.086;21.066;2023-07-13T14:01:36;15.52;;;12.80;;
23474;SDS011;11910;52.086;21.066;2023-07-13T14:04:03;12.73;;;11.38;;
23474;SDS011;11910;52.086;21.066;2023-07-13T14:06:30;14.13;;;12.35;;
23474;SDS011;11910;52.086;21.066;2023-07-13T14:08:57;13.52;;;12.13;;
23474;SDS011;11910;52.086;21.066;2023-07-13T14:11:24;11.40;;;10.05;;
23474;SDS011;11910;52.086;21.066;2023-07-13T14:13:54;10.98;;;9.85;;
23474;SDS011;11910;52.086;21.066;2023-07-13T14:16:24;13.43;;;10.82;;
23474;SDS011;11910;52.086;21.066;2023-07-13T14:18:57;11.02;;;9.85;;
23474;SDS011;11910;52.086;21.066;2023-07-13T14:21:25;11.60;;;10.40;;
23474;SDS011;11910;52.086;21.066;2023-07-13T14:23:53;12.68;;;10.05;;
23474;SDS011;11910;52.086;21.066;2023-07-13T14:26:20;11.52;;;9.70;;
23474;SDS011;11910;52.086;21.066;2023-07-13T14:28:48;10.90;;;9.80;;
23474;SDS011;11910;52.086;21.066;2023-07-13T14:31:17;13.02;;;9.85;;
23474;SDS011;11910;52.086;21.066;2023-07-13T14:33:46;11.00;;;9.63;;
23474;SDS011;11910;52.086;21.066;2023-07-13T14:36:32;12.07;;;9.52;;
23474;SDS011;11910;52.086;21.066;2023-07-13T14:39:00;8.93;;;8.00;;
23474;SDS011;11910;52.086;21.066;2023-07-13T14:41:31;10.23;;;8.35;;
23474;SDS011;11910;52.086;21.066;2023-07-13T14:43:57;8.95;;;7.38;;
23474;SDS011;11910;52.086;21.066;2023-07-13T14:46:29;8.77;;;7.88;;
23474;SDS011;11910;52.086;21.066;2023-07-13T14:48:59;8.52;;;7.68;;
23474;SDS011;11910;52.086;21.066;2023-07-13T14:51:26;7.93;;;6.22;;
23474;SDS011;11910;52.086;21.066;2023-07-13T14:53:52;8.25;;;7.13;;
23474;SDS011;11910;52.086;21.066;2023-07-13T14:56:17;8.48;;;6.97;;
23474;SDS011;11910;52.086;21.066;2023-07-13T14:58:43;8.20;;;7.45;;
23474;SDS011;11910;52.086;21.066;2023-07-13T15:01:11;10.15;;;7.43;;
23474;SDS011;11910;52.086;21.066;2023-07-13T15:03:41;7.32;;;6.55;;
23474;SDS011;11910;52.086;21.066;2023-07-13T15:06:10;7.25;;;6.60;;
23474;SDS011;11910;52.086;21.066;2023-07-13T15:08:37;10.15;;;6.75;;
23474;SDS011;11910;52.086;21.066;2023-07-13T15:11:05;9.90;;;6.97;;
23474;SDS011;11910;52.086;21.066;2023-07-13T15:13:37;8.13;;;7.32;;
23474;SDS011;11910;52.086;21.066;2023-07-13T15:16:04;7.82;;;6.90;;
23474;SDS011;11910;52.086;21.066;2023-07-13T15:18:43;8.68;;;7.50;;
23474;SDS011;11910;52.086;21.066;2023-07-13T15:21:10;8.45;;;7.68;;
23474;SDS011;11910;52.086;21.066;2023-07-13T15:23:39;8.30;;;7.50;;
23474;SDS011;11910;52.086;21.066;2023-07-13T15:26:05;8.82;;;7.55;;
23474;SDS011;11910;52.086;21.066;2023-07-13T15:28:38;8.93;;;7.45;;
23474;SDS011;11910;52.086;21.066;2023-07-13T15:31:04;11.40;;;7.45;;
23474;SDS011;11910;52.086;21.066;2023-07-13T15:33:50;8.30;;;7.50;;
23474;SDS011;11910;52.086;21.066;2023-07-13T15:36:20;12.05;;;8.30;;
23474;SDS011;11910;52.086;21.066;2023-07-13T15:38:46;9.52;;;8.25;;
23474;SDS011;11910;52.086;21.066;2023-07-13T15:41:20;9.98;;;9.07;;
23474;SDS011;11910;52.086;21.066;2023-07-13T15:43:47;10.55;;;8.95;;
23474;SDS011;11910;52.086;21.066;2023-07-13T15:46:16;11.45;;;8.70;;
23474;SDS011;11910;52.086;21.066;2023-07-13T15:48:46;8.98;;;7.93;;
23474;SDS011;11910;52.086;21.066;2023-07-13T15:51:18;9.15;;;8.25;;
23474;SDS011;11910;52.086;21.066;2023-07-13T15:53:49;10.07;;;8.10;;
23474;SDS011;11910;52.086;21.066;2023-07-13T15:56:21;8.68;;;7.60;;
23474;SDS011;11910;52.086;21.066;2023-07-13T15:58:49;9.57;;;8.68;;
23474;SDS011;11910;52.086;21.066;2023-07-13T16:01:15;8.70;;;7.90;;
23474;SDS011;11910;52.086;21.066;2023-07-13T16:03:41;11.52;;;8.07;;
23474;SDS011;11910;52.086;21.066;2023-07-13T16:06:17;12.88;;;9.02;;
23474;SDS011;11910;52.086;21.066;2023-07-13T16:08:47;13.25;;;9.73;;
23474;SDS011;11910;52.086;21.066;2023-07-13T16:11:18;9.30;;;8.32;;
23474;SDS011;11910;52.086;21.066;2023-07-13T16:13:49;9.68;;;8.68;;
23474;SDS011;11910;52.086;21.066;2023-07-13T16:16:20;11.70;;;8.93;;
23474;SDS011;11910;52.086;21.066;2023-07-13T16:18:53;10.30;;;9.07;;